Аэропорт: Нижневартовск. Нижневартовск

ICAO: USNN

METAR:
2022-01-28 08:00:00
USNN 280800Z 20003MPS CAVOK M14/M16 Q1020 R21/35//45 NOSIG RMK QFE760
METAR:
2022-01-28 05:00:00
TAF USNN 280500Z 2806/2906 20003G10MPS 9999 FEW010 BKN016 TEMPO 2806/2812 -SHSN FEW005 BKN016CB BECMG 2818/2820 23003G08MPS